Time;durP1;ratioP1;P1;durP2;ratioP2;P2;SDS_P1;SDS_P2;PMS_P1;PMS_P2;Temp;Humidity;BMP_temperature;BMP_pressure;BME280_temperature;BME280_humidity;BME280_pressure;Samples;Min_cycle;Max_cycle;Signal;HPM_P1;HPM_P2
2021/11/03 00:00:33;;;;;;;11.47;6.90;;;;;;;2.76;100.00;99507.03;5062601;28;20203;-73
2021/11/03 00:03:02;;;;;;;15.07;6.60;;;;;;;2.77;100.00;99513.03;5059272;28;20587;-73
2021/11/03 00:05:29;;;;;;;11.43;6.70;;;;;;;2.78;100.00;99515.59;5062362;28;20203;-73
2021/11/03 00:07:56;;;;;;;14.47;6.87;;;;;;;2.86;100.00;99515.50;5063479;28;20202;-73
2021/11/03 00:10:23;;;;;;;13.07;6.83;;;;;;;2.89;100.00;99512.03;5062908;28;20210;-73
2021/11/03 00:12:51;;;;;;;13.33;6.90;;;;;;;2.96;100.00;99518.81;5064531;28;20225;-74
2021/11/03 00:15:18;;;;;;;13.17;6.87;;;;;;;2.94;100.00;99523.13;5060151;28;20592;-73
2021/11/03 00:17:44;;;;;;;15.00;6.80;;;;;;;2.92;100.00;99520.59;5060358;28;20208;-73
2021/11/03 00:20:13;;;;;;;10.23;6.33;;;;;;;2.97;100.00;99517.94;5062465;28;20994;-73
2021/11/03 00:22:40;;;;;;;13.23;6.37;;;;;;;2.96;100.00;99521.41;5054952;28;20234;-72
2021/11/03 00:25:08;;;;;;;10.77;6.47;;;;;;;2.98;100.00;99519.66;5059902;28;20221;-73
2021/11/03 00:27:34;;;;;;;9.27;6.17;;;;;;;2.99;100.00;99518.75;5064513;28;20199;-73
2021/11/03 00:30:03;;;;;;;11.90;6.73;;;;;;;3.02;100.00;99526.44;5060817;28;20293;-73
2021/11/03 00:32:30;;;;;;;11.17;6.53;;;;;;;2.93;100.00;99526.56;5060878;28;20222;-73
2021/11/03 00:34:56;;;;;;;10.60;6.13;;;;;;;2.85;100.00;99526.69;5063299;28;20199;-73
2021/11/03 00:37:22;;;;;;;11.37;6.40;;;;;;;2.90;100.00;99519.72;5058784;28;20211;-72
2021/11/03 00:39:49;;;;;;;10.70;5.93;;;;;;;2.93;100.00;99521.44;5059421;28;20248;-73
2021/11/03 00:42:15;;;;;;;9.83;6.47;;;;;;;2.95;100.00;99517.09;5059053;28;20250;-73
2021/11/03 00:44:42;;;;;;;10.67;6.10;;;;;;;2.80;100.00;99521.56;5061558;28;20199;-73
2021/11/03 00:47:10;;;;;;;10.30;5.43;;;;;;;2.83;100.00;99513.81;5059765;28;20705;-73
2021/11/03 00:49:37;;;;;;;10.80;6.07;;;;;;;2.80;100.00;99521.56;5060114;28;20252;-73
2021/11/03 00:52:05;;;;;;;8.73;5.50;;;;;;;2.78;100.00;99512.16;5056218;28;20696;-73
2021/11/03 00:54:31;;;;;;;8.30;5.00;;;;;;;2.79;100.00;99521.59;5053767;28;20256;-73
2021/11/03 00:56:58;;;;;;;9.00;5.70;;;;;;;2.82;100.00;99519.00;5060670;28;20556;-72
2021/11/03 00:59:24;;;;;;;10.10;5.60;;;;;;;2.82;100.00;99517.25;5064727;28;20256;-72
2021/11/03 01:01:51;;;;;;;13.57;5.60;;;;;;;2.77;100.00;99521.59;5062950;28;20957;-73
2021/11/03 01:04:19;;;;;;;9.90;5.33;;;;;;;2.81;100.00;99518.16;5060770;28;20219;-73
2021/11/03 01:06:45;;;;;;;10.57;5.73;;;;;;;2.89;100.00;99522.34;5060504;28;20245;-73
2021/11/03 01:09:12;;;;;;;10.20;5.90;;;;;;;2.90;100.00;99518.88;5062398;28;20205;-73
2021/11/03 01:11:38;;;;;;;10.57;6.37;;;;;;;2.98;100.00;99515.34;5061983;28;20219;-73
2021/11/03 01:14:07;;;;;;;13.33;5.87;;;;;;;3.13;100.00;99514.31;5060089;28;20563;-73
2021/11/03 01:16:34;;;;;;;8.00;5.47;;;;;;;3.22;100.00;99513.31;5076103;28;20213;-73
2021/11/03 01:19:01;;;;;;;10.73;5.47;;;;;;;3.21;100.00;99506.47;5064821;28;20203;-73
2021/11/03 01:21:29;;;;;;;10.03;5.47;;;;;;;3.24;100.00;99509.00;5062180;28;20223;-73
2021/11/03 01:23:56;;;;;;;10.33;6.13;;;;;;;3.22;100.00;99506.44;5064243;28;20225;-73
2021/11/03 01:26:22;;;;;;;10.87;5.60;;;;;;;3.29;100.00;99509.78;5060144;28;20199;-73
2021/11/03 01:28:49;;;;;;;7.63;4.60;;;;;;;3.32;100.00;99507.16;5054214;28;20198;-73
2021/11/03 01:31:16;;;;;;;11.80;5.60;;;;;;;3.34;100.00;99508.00;5062612;28;20786;-73
2021/11/03 01:33:43;;;;;;;9.97;5.50;;;;;;;3.39;100.00;99505.34;5060884;28;20195;-73
2021/11/03 01:36:11;;;;;;;12.00;5.77;;;;;;;3.39;100.00;99500.19;5057821;28;20206;-73
2021/11/03 01:38:39;;;;;;;10.77;5.30;;;;;;;3.34;100.00;99501.97;5062534;28;20207;-72
2021/11/03 01:41:06;;;;;;;8.93;5.60;;;;;;;3.36;100.00;99489.91;5059531;28;20191;-73
2021/11/03 01:43:39;;;;;;;8.93;5.27;;;;;;;3.37;100.00;99500.19;5063788;28;20283;-73
2021/11/03 01:46:26;;;;;;;10.60;5.27;;;;;;;3.37;100.00;99491.63;5060730;28;20213;-73
2021/11/03 01:49:06;;;;;;;8.63;5.50;;;;;;;3.34;100.00;99486.50;5055295;28;20238;-73
2021/11/03 01:51:38;;;;;;;7.43;4.47;;;;;;;3.23;100.00;99484.94;5060845;28;20218;-73
2021/11/03 01:54:10;;;;;;;8.20;4.93;;;;;;;3.28;100.00;99478.88;5059313;28;20203;-73
2021/11/03 01:56:37;;;;;;;9.97;4.97;;;;;;;3.25;100.00;99484.91;5063205;28;20256;-73
2021/11/03 01:59:08;;;;;;;8.80;5.03;;;;;;;3.24;100.00;99478.09;5065853;28;20275;-73
2021/11/03 02:01:35;;;;;;;8.40;5.63;;;;;;;3.25;100.00;99482.34;5079901;28;20227;-73
2021/11/03 02:04:01;;;;;;;10.23;4.97;;;;;;;3.18;100.00;99488.47;5061156;28;20773;-72
2021/11/03 02:06:28;;;;;;;7.53;4.40;;;;;;;3.02;100.00;99483.50;5060353;28;20211;-73
2021/11/03 02:08:57;;;;;;;7.47;4.77;;;;;;;2.95;100.00;99481.06;5060174;28;20206;-73
2021/11/03 02:11:28;;;;;;;6.17;4.10;;;;;;;2.92;100.00;99489.69;5062956;28;20766;-73
2021/11/03 02:13:57;;;;;;;6.90;4.40;;;;;;;2.88;100.00;99497.47;5063271;28;20191;-73
2021/11/03 02:16:23;;;;;;;7.23;4.83;;;;;;;2.93;100.00;99483.66;5063235;28;20199;-73
2021/11/03 02:18:51;;;;;;;7.77;4.67;;;;;;;2.95;100.00;99491.34;5060595;28;20229;-72
2021/11/03 02:21:23;;;;;;;8.37;4.80;;;;;;;2.97;100.00;99487.91;5064666;28;20213;-73
2021/11/03 02:23:59;;;;;;;9.97;4.70;;;;;;;2.90;100.00;99487.97;5062753;28;20275;-73
2021/11/03 02:26:31;;;;;;;6.80;4.73;;;;;;;2.76;100.00;99494.19;5066415;28;20202;-73
2021/11/03 02:28:59;;;;;;;9.53;4.47;;;;;;;2.74;100.00;99495.91;5064876;28;20205;-72
2021/11/03 02:31:36;;;;;;;10.00;4.57;;;;;;;2.75;100.00;99497.59;5064116;28;20226;-73
2021/11/03 02:34:05;;;;;;;9.67;4.30;;;;;;;2.93;100.00;99505.97;5066159;28;20683;-73
2021/11/03 02:36:32;;;;;;;6.57;4.57;;;;;;;2.97;100.00;99505.94;5064806;28;20793;-73
2021/11/03 02:39:02;;;;;;;8.87;4.50;;;;;;;3.10;100.00;99498.03;5059935;28;20252;-72
2021/11/03 02:41:35;;;;;;;9.80;4.90;;;;;;;3.16;100.00;99500.50;5063306;28;20293;-72
2021/11/03 02:44:09;;;;;;;6.90;4.83;;;;;;;3.18;100.00;99499.63;5062774;28;20681;-72
2021/11/03 02:46:36;;;;;;;14.20;5.73;;;;;;;3.22;100.00;99503.03;5056181;28;20294;-73
2021/11/03 02:49:03;;;;;;;9.13;4.93;;;;;;;3.21;100.00;99512.44;5059105;28;20209;-72
2021/11/03 02:51:36;;;;;;;8.30;4.90;;;;;;;3.28;100.00;99510.66;5063443;28;20225;-73
2021/11/03 02:54:05;;;;;;;8.63;5.23;;;;;;;3.35;100.00;99507.09;5063635;28;20234;-73
2021/11/03 02:56:40;;;;;;;8.57;5.63;;;;;;;3.45;100.00;99505.25;5064573;28;20202;-72
2021/11/03 02:59:08;;;;;;;8.47;5.40;;;;;;;3.48;100.00;99505.19;5062267;28;20211;-73
2021/11/03 03:01:38;;;;;;;9.57;5.50;;;;;;;3.58;100.00;99506.75;5066321;28;20322;-73
2021/11/03 03:04:09;;;;;;;10.30;5.60;;;;;;;3.67;100.00;99508.34;5063819;28;20223;-73
2021/11/03 03:06:35;;;;;;;10.70;6.20;;;;;;;3.71;100.00;99494.56;5059797;28;20650;-73
2021/11/03 03:09:04;;;;;;;9.17;5.37;;;;;;;3.77;100.00;99503.91;5059206;28;20206;-73
2021/11/03 03:11:32;;;;;;;8.27;5.40;;;;;;;3.83;100.00;99506.38;5060781;28;20599;-73
2021/11/03 03:14:01;;;;;;;9.20;5.57;;;;;;;3.86;100.00;99497.75;5059093;28;20392;-74
2021/11/03 03:16:28;;;;;;;9.70;5.60;;;;;;;3.91;100.00;99493.38;5060372;28;20743;-73
2021/11/03 03:18:55;;;;;;;12.13;5.80;;;;;;;3.97;100.00;99490.66;5063345;28;20202;-73
2021/11/03 03:21:23;;;;;;;12.50;6.00;;;;;;;4.03;100.00;99487.13;5062875;28;20268;-73
2021/11/03 03:23:50;;;;;;;8.00;5.07;;;;;;;4.09;100.00;99489.63;5063831;28;20215;-73
2021/11/03 03:26:21;;;;;;;8.90;5.50;;;;;;;4.12;100.00;99503.31;5058761;28;20210;-73
2021/11/03 03:28:48;;;;;;;12.07;6.07;;;;;;;4.17;100.00;99508.41;5060455;28;20202;-73
2021/11/03 03:31:17;;;;;;;9.33;5.60;;;;;;;4.24;100.00;99502.25;5063398;28;20544;-73
2021/11/03 03:33:47;;;;;;;12.10;6.00;;;;;;;4.31;100.00;99502.97;5055571;28;20208;-72
2021/11/03 03:36:16;;;;;;;9.13;5.57;;;;;;;4.35;100.00;99495.16;5057532;28;20301;-72
2021/11/03 03:38:44;;;;;;;11.93;5.97;;;;;;;4.40;100.00;99500.22;5060625;28;20207;-72
2021/11/03 03:41:11;;;;;;;12.70;6.30;;;;;;;4.43;100.00;99504.47;5062519;28;20686;-72
2021/11/03 03:43:41;;;;;;;9.63;5.83;;;;;;;4.50;100.00;99506.06;5063313;28;20215;-73
2021/11/03 03:46:08;;;;;;;11.47;6.07;;;;;;;4.54;100.00;99513.72;5057559;28;20202;-71
2021/11/03 03:48:37;;;;;;;11.93;6.13;;;;;;;4.57;100.00;99509.38;5061743;28;20256;-72
2021/11/03 03:51:05;;;;;;;11.27;6.10;;;;;;;4.60;100.00;99517.91;5062859;28;20211;-71
2021/11/03 03:53:31;;;;;;;10.37;5.67;;;;;;;4.63;100.00;99520.44;5059645;28;20569;-72
2021/11/03 03:55:58;;;;;;;12.50;5.77;;;;;;;4.65;100.00;99520.41;5058519;28;20213;-72
2021/11/03 03:58:24;;;;;;;10.10;5.60;;;;;;;4.67;100.00;99522.06;5057762;28;20231;-72
2021/11/03 04:00:52;;;;;;;8.87;5.73;;;;;;;4.71;100.00;99528.03;5062456;28;20344;-72
2021/11/03 04:03:20;;;;;;;12.53;6.77;;;;;;;4.74;100.00;99530.56;5057223;28;20305;-72
2021/11/03 04:05:50;;;;;;;13.10;6.77;;;;;;;4.76;100.00;99525.38;5060784;28;20651;-72
2021/11/03 04:08:19;;;;;;;11.63;6.93;;;;;;;4.80;100.00;99534.75;5058440;28;20206;-73
2021/11/03 04:10:48;;;;;;;12.67;7.97;;;;;;;4.83;100.00;99526.94;5061396;28;20227;-72
2021/11/03 04:13:15;;;;;;;17.53;8.77;;;;;;;4.85;100.00;99520.00;5059355;28;20226;-72
2021/11/03 04:15:42;;;;;;;14.60;9.27;;;;;;;4.87;100.00;99528.56;5061267;28;20227;-73
2021/11/03 04:18:09;;;;;;;17.83;10.30;;;;;;;4.89;100.00;99532.84;5059658;28;20205;-73
2021/11/03 04:20:36;;;;;;;18.37;11.13;;;;;;;4.89;100.00;99543.16;5058718;28;20208;-72
2021/11/03 04:23:04;;;;;;;17.47;9.67;;;;;;;4.90;100.00;99539.69;5059658;28;20630;-72
2021/11/03 04:25:31;;;;;;;18.00;9.90;;;;;;;4.92;100.00;99537.94;5059918;28;20691;-72
2021/11/03 04:27:58;;;;;;;12.63;7.63;;;;;;;4.95;100.00;99541.34;5057015;28;20199;-72
2021/11/03 04:30:26;;;;;;;14.23;7.13;;;;;;;4.98;100.00;99541.25;5056079;28;20292;-72
2021/11/03 04:32:53;;;;;;;11.57;6.53;;;;;;;4.99;100.00;99540.41;5059627;28;20223;-72
2021/11/03 04:35:23;;;;;;;12.77;7.20;;;;;;;5.00;100.00;99542.09;5060454;28;20205;-71
2021/11/03 04:37:49;;;;;;;12.57;6.40;;;;;;;4.99;100.00;99530.91;5052867;28;20218;-72
2021/11/03 04:40:20;;;;;;;9.90;6.53;;;;;;;5.02;100.00;99530.00;5056465;28;20199;-72
2021/11/03 04:42:48;;;;;;;10.93;6.07;;;;;;;5.01;100.00;99536.03;5058253;28;20217;-71
2021/11/03 04:45:16;;;;;;;10.30;6.00;;;;;;;5.04;100.00;99535.97;5057169;28;20219;-72
2021/11/03 04:47:43;;;;;;;10.23;6.47;;;;;;;5.04;100.00;99542.00;5057097;28;20213;-72
2021/11/03 04:50:19;;;;;;;8.30;5.47;;;;;;;5.01;100.00;99542.06;5058919;28;20199;-72
2021/11/03 04:52:46;;;;;;;12.57;6.23;;;;;;;5.01;100.00;99548.97;5058999;28;20346;-72
2021/11/03 04:55:13;;;;;;;10.67;6.20;;;;;;;4.97;100.00;99553.34;5057935;28;20229;-72
2021/11/03 04:57:41;;;;;;;10.67;6.73;;;;;;;4.95;100.00;99551.69;5057807;28;20211;-72
2021/11/03 05:00:11;;;;;;;8.77;6.07;;;;;;;4.95;100.00;99549.09;5057508;28;20698;-71
2021/11/03 05:02:40;;;;;;;9.90;5.97;;;;;;;4.93;100.00;99554.28;5051763;28;20337;-71
2021/11/03 05:05:07;;;;;;;10.03;5.40;;;;;;;4.92;100.00;99557.75;5056408;28;20273;-72
2021/11/03 05:07:34;;;;;;;7.40;4.97;;;;;;;4.92;100.00;99553.44;5053732;28;20208;-72
2021/11/03 05:10:01;;;;;;;9.70;5.87;;;;;;;4.92;100.00;99553.44;5052274;28;20238;-71
2021/11/03 05:12:28;;;;;;;12.20;6.50;;;;;;;4.95;100.00;99554.25;5056844;28;20227;-72
2021/11/03 05:14:56;;;;;;;9.17;5.77;;;;;;;4.94;100.00;99553.38;5052957;28;20195;-72
2021/11/03 05:17:22;;;;;;;9.53;6.13;;;;;;;4.95;100.00;99556.84;5056749;28;20202;-71
2021/11/03 05:19:52;;;;;;;9.10;5.47;;;;;;;4.97;100.00;99557.66;5061140;28;20253;-71
2021/11/03 05:22:25;;;;;;;8.83;5.40;;;;;;;4.97;100.00;99552.50;5058041;28;20652;-72
2021/11/03 05:24:57;;;;;;;7.70;4.97;;;;;;;4.98;100.00;99556.75;5059651;28;20218;-72
2021/11/03 05:27:25;;;;;;;6.63;4.60;;;;;;;4.98;100.00;99542.13;5056139;28;20775;-72
2021/11/03 05:29:53;;;;;;;7.20;4.87;;;;;;;5.01;100.00;99548.97;5054248;28;20211;-72
2021/11/03 05:32:20;;;;;;;8.07;5.73;;;;;;;5.00;100.00;99544.69;5040497;28;20290;-73
2021/11/03 05:34:47;;;;;;;8.70;5.30;;;;;;;4.99;100.00;99554.16;5032042;28;20199;-72
2021/11/03 05:37:15;;;;;;;9.47;5.73;;;;;;;4.98;100.00;99544.72;5027000;28;20250;-72
2021/11/03 05:39:41;;;;;;;8.13;5.20;;;;;;;4.92;100.00;99545.69;5035724;28;20997;-72
2021/11/03 05:42:08;;;;;;;8.10;4.80;;;;;;;4.85;100.00;99544.09;5032120;28;20226;-72
2021/11/03 05:44:35;;;;;;;8.07;4.40;;;;;;;4.80;100.00;99542.50;5030633;28;20226;-72
2021/11/03 05:47:01;;;;;;;6.03;4.67;;;;;;;4.75;100.00;99552.94;5026013;28;20198;-72
2021/11/03 05:49:32;;;;;;;6.30;4.27;;;;;;;4.68;100.00;99543.59;5033238;28;20210;-72
2021/11/03 05:52:01;;;;;;;6.17;4.30;;;;;;;4.64;100.00;99554.84;5038985;28;20261;-72
2021/11/03 05:54:28;;;;;;;6.00;4.40;;;;;;;4.59;100.00;99556.66;5030742;28;20208;-71
2021/11/03 05:57:00;;;;;;;5.90;3.77;;;;;;;4.58;100.00;99553.25;5027863;28;20200;-72
2021/11/03 05:59:26;;;;;;;9.37;4.17;;;;;;;4.58;100.00;99562.72;5036228;28;20195;-71
2021/11/03 06:01:53;;;;;;;12.27;8.13;;;;;;;4.57;100.00;99569.59;5031118;28;20258;-71
2021/11/03 06:04:19;;;;;;;32.23;16.83;;;;;;;4.61;100.00;99567.81;5033568;28;20219;-72
2021/11/03 06:06:47;;;;;;;25.40;12.77;;;;;;;4.62;100.00;99580.69;5029663;28;20215;-72
2021/11/03 06:09:15;;;;;;;13.53;8.50;;;;;;;4.59;100.00;99578.19;5035624;28;20205;-72
2021/11/03 06:11:46;;;;;;;13.87;9.43;;;;;;;4.56;100.00;99580.81;5030161;28;20264;-72
2021/11/03 06:14:13;;;;;;;10.57;7.23;;;;;;;4.54;100.00;99580.84;5030588;28;20200;-72
2021/11/03 06:16:40;;;;;;;9.07;6.53;;;;;;;4.52;100.00;99586.91;5037410;28;20231;-72
2021/11/03 06:19:07;;;;;;;9.50;6.93;;;;;;;4.51;100.00;99590.38;5036655;28;20205;-72
2021/11/03 06:21:33;;;;;;;8.57;6.67;;;;;;;4.47;100.00;99599.06;5036534;28;20260;-72
2021/11/03 06:24:01;;;;;;;8.97;6.83;;;;;;;4.47;100.00;99594.75;5032066;28;20303;-72
2021/11/03 06:26:28;;;;;;;9.70;6.70;;;;;;;4.48;100.00;99601.59;5036430;28;20928;-72
2021/11/03 06:28:55;;;;;;;10.17;6.97;;;;;;;4.45;100.00;99600.78;5039304;28;20286;-72
2021/11/03 06:31:22;;;;;;;9.30;7.33;;;;;;;4.41;100.00;99605.16;5034639;28;20195;-72
2021/11/03 06:33:49;;;;;;;12.97;7.17;;;;;;;4.38;100.00;99607.81;5034135;28;20269;-72
2021/11/03 06:36:16;;;;;;;8.73;6.00;;;;;;;4.35;100.00;99602.69;5031844;28;20326;-72
2021/11/03 06:38:42;;;;;;;9.03;6.30;;;;;;;4.35;100.00;99613.03;5035877;28;20298;-71
2021/11/03 06:41:12;;;;;;;9.77;7.67;;;;;;;4.29;100.00;99607.94;5032981;28;20292;-72
2021/11/03 06:43:39;;;;;;;9.53;5.93;;;;;;;4.26;100.00;99614.03;5028383;28;20718;-71
2021/11/03 06:46:05;;;;;;;9.50;6.00;;;;;;;4.23;100.00;99615.81;5041462;28;20223;-72
2021/11/03 06:48:32;;;;;;;10.43;4.80;;;;;;;4.21;100.00;99620.97;5047169;28;21523;-72
2021/11/03 06:50:58;;;;;;;9.53;5.47;;;;;;;4.17;100.00;99617.59;5036775;28;20577;-72
2021/11/03 06:53:26;;;;;;;8.17;4.97;;;;;;;4.18;100.00;99619.28;5044019;28;20724;-71
2021/11/03 06:55:53;;;;;;;8.43;5.00;;;;;;;4.16;100.00;99621.03;5035514;28;20192;-72
2021/11/03 06:58:23;;;;;;;7.70;5.43;;;;;;;4.15;100.00;99628.81;5035793;28;20678;-71
2021/11/03 07:00:52;;;;;;;7.93;4.53;;;;;;;4.16;100.00;99630.53;5034837;28;20628;-72
2021/11/03 07:03:21;;;;;;;9.47;5.03;;;;;;;4.18;100.00;99639.09;5037586;28;20751;-72
2021/11/03 07:05:49;;;;;;;9.27;5.80;;;;;;;4.21;100.00;99638.19;5041310;28;20229;-72
2021/11/03 07:08:17;;;;;;;11.00;5.80;;;;;;;4.23;100.00;99633.88;5037162;28;20306;-72
2021/11/03 07:10:48;;;;;;;10.63;5.77;;;;;;;4.23;100.00;99634.72;5042150;28;20195;-72
2021/11/03 07:13:16;;;;;;;11.73;5.97;;;;;;;4.30;100.00;99638.06;5039207;28;20235;-72
2021/11/03 07:15:44;;;;;;;14.43;6.10;;;;;;;4.33;100.00;99643.16;5033453;28;20211;-72
2021/11/03 07:18:11;;;;;;;10.43;6.43;;;;;;;4.38;100.00;99648.22;5041278;28;20243;-71
2021/11/03 07:20:41;;;;;;;11.67;6.13;;;;;;;4.39;100.00;99644.78;5034420;28;20198;-72
2021/11/03 07:23:08;;;;;;;10.20;6.53;;;;;;;4.43;100.00;99644.69;5036485;28;20247;-72
2021/11/03 07:25:35;;;;;;;16.47;11.40;;;;;;;4.48;100.00;99648.06;5043905;28;20220;-71
2021/11/03 07:28:01;;;;;;;20.00;16.20;;;;;;;4.55;100.00;99649.66;5036403;28;20208;-72
2021/11/03 07:30:31;;;;;;;17.27;11.50;;;;;;;4.64;100.00;99660.72;5034268;28;20642;-72
2021/11/03 07:32:59;;;;;;;12.70;7.03;;;;;;;4.71;100.00;99658.00;5038724;28;20717;-72
2021/11/03 07:35:26;;;;;;;15.17;7.80;;;;;;;4.76;100.00;99662.22;5036762;28;20210;-71
2021/11/03 07:37:53;;;;;;;13.77;6.73;;;;;;;4.83;100.00;99671.56;5039739;28;20853;-71
2021/11/03 07:40:22;;;;;;;16.27;6.90;;;;;;;4.93;100.00;99665.38;5033725;28;20701;-72
2021/11/03 07:42:50;;;;;;;15.50;7.40;;;;;;;5.03;100.00;99663.44;5044202;28;20231;-72
2021/11/03 07:45:16;;;;;;;16.70;8.47;;;;;;;5.10;100.00;99673.66;5034088;28;20244;-72
2021/11/03 07:47:44;;;;;;;19.70;9.20;;;;;;;5.19;100.00;99677.81;5042404;28;20202;-72
2021/11/03 07:50:16;;;;;;;21.97;9.17;;;;;;;5.32;100.00;99671.50;5040459;28;20212;-71
2021/11/03 07:52:42;;;;;;;19.70;9.07;;;;;;;5.44;100.00;99678.16;5042604;28;20217;-72
2021/11/03 07:55:09;;;;;;;20.57;9.87;;;;;;;5.56;100.00;99669.31;5035566;28;21448;-72
2021/11/03 07:57:36;;;;;;;24.80;10.93;;;;;;;5.66;100.00;99672.53;5043917;28;20207;-71
2021/11/03 08:00:04;;;;;;;25.03;11.83;;;;;;;5.75;100.00;99667.19;5035464;28;20245;-71
2021/11/03 08:02:38;;;;;;;43.77;19.53;;;;;;;5.82;100.00;99670.47;5043428;28;20219;-72
2021/11/03 08:05:05;;;;;;;29.87;12.70;;;;;;;5.88;100.00;99668.59;5034322;28;20607;-71
2021/11/03 08:07:33;;;;;;;33.60;13.30;;;;;;;5.99;100.00;99670.16;5034352;28;20731;-73
2021/11/03 08:09:59;;;;;;;41.17;14.97;;;;;;;6.07;100.00;99669.09;5034195;28;20579;-72
2021/11/03 08:12:26;;;;;;;34.33;13.33;;;;;;;6.13;100.00;99662.91;5030698;28;20245;-72
2021/11/03 08:14:52;;;;;;;38.43;14.60;;;;;;;6.12;100.00;99665.53;5036552;28;20600;-71
2021/11/03 08:17:24;;;;;;;41.80;15.43;;;;;;;6.15;100.00;99668.06;5040751;28;20200;-72
2021/11/03 08:19:56;;;;;;;35.90;13.77;;;;;;;6.19;100.00;99670.53;5037289;28;20215;-71
2021/11/03 08:22:24;;;;;;;38.83;15.80;;;;;;;6.31;100.00;99671.13;5030994;28;20277;-72
2021/11/03 08:24:53;;;;;;;41.37;15.93;;;;;;;6.38;100.00;99676.13;5034763;28;20211;-72
2021/11/03 08:27:22;;;;;;;34.57;15.37;;;;;;;6.48;100.00;99675.91;5037923;28;20226;-71
2021/11/03 08:29:48;;;;;;;47.77;17.87;;;;;;;6.62;100.00;99669.50;5034236;28;20254;-71
2021/11/03 08:32:19;;;;;;;36.37;16.13;;;;;;;6.80;100.00;99665.56;5044189;28;20234;-72
2021/11/03 08:34:47;;;;;;;39.23;17.30;;;;;;;6.95;100.00;99666.09;5039384;28;20857;-72
2021/11/03 08:37:15;;;;;;;41.37;19.27;;;;;;;7.02;100.00;99665.03;5035067;28;20330;-72
2021/11/03 08:39:45;;;;;;;37.97;17.53;;;;;;;7.04;100.00;99654.63;5035124;28;20204;-72
2021/11/03 08:42:12;;;;;;;34.50;15.80;;;;;;;7.02;100.00;99652.06;5027308;28;20232;-73
2021/11/03 08:44:40;;;;;;;41.17;20.50;;;;;;;7.01;100.00;99655.53;5040594;28;20206;-72
2021/11/03 08:47:08;;;;;;;29.57;13.60;;;;;;;7.02;100.00;99652.06;5033644;28;20208;-72
2021/11/03 08:49:35;;;;;;;27.63;13.70;;;;;;;7.04;100.00;99654.63;5035724;28;20200;-72
2021/11/03 08:52:04;;;;;;;25.70;11.30;;;;;;;7.00;100.00;99664.19;5036511;28;20897;-72
2021/11/03 08:54:30;;;;;;;21.77;11.03;;;;;;;6.94;100.00;99667.81;5036857;28;20199;-72
2021/11/03 08:56:57;;;;;;;24.73;11.07;;;;;;;7.10;100.00;99675.19;5035474;28;20294;-72
2021/11/03 08:59:25;;;;;;;22.73;11.90;;;;;;;7.13;100.00;99680.28;5035650;28;20192;-71
2021/11/03 09:01:52;;;;;;;23.17;11.80;;;;;;;7.15;100.00;99671.56;5036923;28;20231;-72
2021/11/03 09:04:18;;;;;;;28.67;13.00;;;;;;;7.19;100.00;99678.41;5042184;28;20268;-71
2021/11/03 09:06:44;;;;;;;32.93;13.03;;;;;;;7.24;100.00;99678.25;5037705;28;20214;-72
2021/11/03 09:09:11;;;;;;;30.13;13.37;;;;;;;7.29;100.00;99676.38;5034550;28;20314;-73
2021/11/03 09:11:37;;;;;;;26.90;13.10;;;;;;;7.36;100.00;99677.91;5032479;28;20219;-72
2021/11/03 09:14:04;;;;;;;26.10;11.63;;;;;;;7.38;100.00;99676.13;5030829;28;20792;-73
2021/11/03 09:16:33;;;;;;;28.63;11.93;;;;;;;7.36;100.00;99682.25;5041394;28;20556;-71
2021/11/03 09:19:00;;;;;;;24.67;11.30;;;;;;;7.42;100.00;99684.66;5030514;28;20214;-73
2021/11/03 09:21:27;;;;;;;23.03;12.10;;;;;;;7.49;100.00;99682.75;5037248;28;20221;-72
2021/11/03 09:23:54;;;;;;;24.80;12.13;;;;;;;7.58;100.00;99672.97;5036722;28;20223;-72
2021/11/03 09:26:23;;;;;;;21.93;10.53;;;;;;;7.66;100.00;99675.34;5035592;28;20667;-72
2021/11/03 09:28:51;;;;;;;27.47;12.90;;;;;;;7.78;100.00;99669.78;5032522;28;20235;-72
2021/11/03 09:31:18;;;;;;;25.50;11.37;;;;;;;7.85;100.00;99660.06;5051802;28;20200;-72
2021/11/03 09:33:46;;;;;;;26.97;12.87;;;;;;;7.95;100.00;99656.31;5038290;28;20740;-72
2021/11/03 09:36:17;;;;;;;34.40;15.83;;;;;;;7.99;100.00;99670.03;5038246;28;20530;-73
2021/11/03 09:38:45;;;;;;;35.33;17.87;;;;;;;8.01;100.00;99668.25;5034282;28;20210;-73
2021/11/03 09:41:19;;;;;;;30.60;13.27;;;;;;;8.05;100.00;99669.84;5042510;28;20198;-73
2021/11/03 09:43:48;;;;;;;25.57;11.90;;;;;;;8.09;100.00;99663.66;5035347;28;20209;-72
2021/11/03 09:46:20;;;;;;;18.87;10.33;;;;;;;8.08;100.00;99661.13;5044203;28;20720;-72
2021/11/03 09:48:52;;;;;;;14.80;8.67;;;;;;;8.10;100.00;99665.34;5040049;28;20278;-72
2021/11/03 09:51:22;;;;;;;15.83;8.27;;;;;;;8.20;100.00;99659.88;5045130;28;20201;-72
2021/11/03 09:53:51;;;;;;;13.73;8.20;;;;;;;8.18;100.00;99666.84;5033606;28;20203;-72
2021/11/03 09:56:20;;;;;;;15.90;9.03;;;;;;;8.24;100.00;99664.06;5035197;28;20273;-72
2021/11/03 09:59:01;;;;;;;13.97;7.57;;;;;;;8.31;100.00;99665.56;5043843;28;20205;-72
2021/11/03 10:01:39;;;;;;;12.80;8.23;;;;;;;8.43;100.00;99659.19;5026925;28;20294;-72
2021/11/03 10:04:20;;;;;;;11.40;7.00;;;;;;;8.45;100.00;99663.41;5036318;28;20643;-72
2021/11/03 10:06:54;;;;;;;14.07;8.47;;;;;;;8.53;100.00;99671.81;5030665;28;20223;-72
2021/11/03 10:09:20;;;;;;;8.70;6.00;;;;;;;8.58;100.00;99669.03;5036150;28;20207;-73
2021/11/03 10:11:49;;;;;;;11.03;5.83;;;;;;;8.63;100.00;99672.34;5030886;28;20235;-72
2021/11/03 10:14:15;;;;;;;10.80;6.03;;;;;;;8.66;100.00;99664.44;5041670;28;20196;-72
2021/11/03 10:16:44;;;;;;;6.63;4.37;;;;;;;8.68;99.63;99664.41;5033575;28;20214;-72
2021/11/03 10:19:29;;;;;;;5.53;4.10;;;;;;;8.68;97.64;99652.25;5034697;28;20221;-72
2021/11/03 10:21:57;;;;;;;4.93;4.10;;;;;;;8.69;97.49;99655.72;5040136;28;20847;-72
2021/11/03 10:24:31;;;;;;;4.07;3.37;;;;;;;8.71;96.50;99664.31;5035484;28;20219;-72
2021/11/03 10:27:02;;;;;;;4.40;3.73;;;;;;;8.74;94.70;99658.97;5041503;28;20667;-71
2021/11/03 10:29:31;;;;;;;6.00;3.67;;;;;;;8.75;94.78;99665.88;5035844;28;20213;-72
2021/11/03 10:32:01;;;;;;;3.87;3.30;;;;;;;8.78;94.58;99664.97;5040984;28;20903;-73
2021/11/03 10:34:41;;;;;;;4.60;3.20;;;;;;;8.79;94.48;99664.03;5045295;28;20212;-72
2021/11/03 10:37:19;;;;;;;5.57;3.00;;;;;;;8.77;91.10;99660.66;5035420;28;20739;-73
2021/11/03 10:39:52;;;;;;;3.53;3.07;;;;;;;8.81;89.87;99657.91;5037667;28;20302;-71
2021/11/03 10:42:23;;;;;;;4.23;2.73;;;;;;;8.81;92.62;99660.50;5046381;28;20915;-72
2021/11/03 10:44:51;;;;;;;3.20;2.63;;;;;;;8.84;92.88;99656.94;5035201;28;20239;-72
2021/11/03 10:47:21;;;;;;;3.17;2.50;;;;;;;8.83;92.10;99665.63;5038407;28;20252;-72
2021/11/03 10:52:42;;;;;;;3.17;2.30;;;;;;;8.83;90.62;99668.22;5039123;28;20396;-72
2021/11/03 10:55:21;;;;;;;2.30;2.10;;;;;;;8.83;92.33;99653.50;5041620;28;20205;-72
2021/11/03 10:57:55;;;;;;;3.37;2.80;;;;;;;8.90;89.75;99651.53;5036092;28;20928;-73
2021/11/03 11:00:25;;;;;;;4.30;2.50;;;;;;;8.91;90.08;99651.47;5043114;28;20274;-72
2021/11/03 11:02:59;;;;;;;3.07;2.53;;;;;;;8.97;90.23;99649.53;5037577;28;20693;-71
2021/11/03 11:05:30;;;;;;;2.30;2.10;;;;;;;9.01;90.84;99643.34;5034724;28;20241;-71
2021/11/03 11:08:03;;;;;;;3.07;2.40;;;;;;;8.98;89.19;99644.31;5035768;28;20206;-72
2021/11/03 11:10:37;;;;;;;2.53;2.30;;;;;;;8.97;89.05;99646.94;5034393;28;20201;-72
2021/11/03 11:13:04;;;;;;;2.60;2.20;;;;;;;9.01;89.11;99644.19;5035379;28;20242;-72
2021/11/03 11:15:38;;;;;;;2.40;2.20;;;;;;;8.99;88.12;99643.41;5037021;28;20234;-72
2021/11/03 11:18:42;;;;;;;3.60;2.10;;;;;;;8.99;88.07;99637.34;5035480;28;20204;-72
2021/11/03 11:21:19;;;;;;;2.40;2.10;;;;;;;9.07;88.81;99632.72;5044407;28;20223;-70
2021/11/03 11:23:51;;;;;;;2.33;1.90;;;;;;;9.08;87.80;99627.47;5041826;28;20204;-72
2021/11/03 11:26:27;;;;;;;2.00;1.63;;;;;;;9.12;87.44;99628.22;5036578;28;20313;-72
2021/11/03 11:29:13;;;;;;;2.10;1.90;;;;;;;9.26;86.02;99635.53;5046281;28;20616;-72
2021/11/03 11:31:56;;;;;;;1.70;1.60;;;;;;;9.28;82.47;99638.91;5034966;28;20331;-72
2021/11/03 11:35:03;;;;;;;2.57;2.00;;;;;;;9.26;86.67;99641.56;5033990;28;20297;-70
2021/11/03 11:37:54;;;;;;;1.60;1.50;;;;;;;9.23;84.66;99649.50;5038902;28;20278;-71
2021/11/03 11:40:50;;;;;;;2.53;1.90;;;;;;;9.35;83.88;99655.16;5040017;28;20381;-71